createdAt,value
2023-04-11T00:02:11.371Z,2.70
2023-04-11T00:05:01.043Z,2.60
2023-04-11T00:07:50.810Z,2.47
2023-04-11T00:10:42.439Z,2.85
2023-04-11T00:13:32.639Z,2.42
2023-04-11T00:16:21.785Z,2.55
2023-04-11T00:19:10.879Z,2.83
2023-04-11T00:22:00.634Z,2.50
2023-04-11T00:24:49.883Z,2.35
2023-04-11T00:27:40.509Z,2.78
2023-04-11T00:30:29.856Z,2.67
2023-04-11T00:33:18.439Z,2.60
2023-04-11T00:36:07.955Z,2.75
2023-04-11T00:38:58.481Z,2.30
2023-04-11T00:41:47.675Z,2.80
2023-04-11T00:44:37.688Z,2.67
2023-04-11T00:47:26.464Z,2.30
2023-04-11T00:50:15.964Z,2.40
2023-04-11T00:53:04.819Z,2.72
2023-04-11T00:55:53.694Z,4.97
2023-04-11T00:58:42.773Z,2.50
2023-04-11T01:01:36.170Z,2.20
2023-04-11T01:04:26.211Z,2.47
2023-04-11T01:07:15.298Z,2.20
2023-04-11T01:10:05.697Z,3.03
2023-04-11T01:12:54.953Z,2.28
2023-04-11T01:15:43.578Z,2.35
2023-04-11T01:18:33.857Z,2.75
2023-04-11T01:21:22.925Z,2.33
2023-04-11T01:24:13.169Z,2.67
2023-04-11T01:27:03.365Z,1.80
2023-04-11T01:29:52.395Z,2.20
2023-04-11T01:32:41.650Z,2.28
2023-04-11T01:35:30.680Z,2.50
2023-04-11T01:38:19.320Z,2.00
2023-04-11T01:41:10.005Z,2.15
2023-04-11T01:43:58.674Z,2.80
2023-04-11T01:46:53.804Z,2.33
2023-04-11T01:49:42.419Z,2.30
2023-04-11T01:52:31.115Z,1.90
2023-04-11T01:55:20.357Z,1.92
2023-04-11T01:58:10.658Z,3.75
2023-04-11T02:01:00.082Z,2.53
2023-04-11T02:03:49.226Z,2.00
2023-04-11T02:06:38.650Z,2.47
2023-04-11T02:09:27.892Z,2.35
2023-04-11T02:12:16.970Z,2.20
2023-04-11T02:15:08.966Z,2.95
2023-04-11T02:18:00.335Z,2.30
2023-04-11T02:20:50.319Z,3.08
2023-04-11T02:23:39.583Z,2.13
2023-04-11T02:26:29.155Z,2.35
2023-04-11T02:29:18.049Z,1.85
2023-04-11T02:32:08.669Z,3.08
2023-04-11T02:34:58.012Z,2.35
2023-04-11T02:37:46.916Z,3.15
2023-04-11T02:40:36.238Z,2.35
2023-04-11T02:43:25.058Z,2.50
2023-04-11T02:46:14.289Z,2.55
2023-04-11T02:49:05.160Z,2.25
2023-04-11T02:51:54.536Z,4.45
2023-04-11T02:54:43.488Z,2.55
2023-04-11T02:57:32.592Z,2.60
2023-04-11T03:00:22.178Z,1.90
2023-04-11T03:03:12.390Z,1.85
2023-04-11T03:06:03.565Z,2.42
2023-04-11T03:08:53.016Z,2.92
2023-04-11T03:11:44.218Z,1.98
2023-04-11T03:14:33.993Z,2.10
2023-04-11T03:17:22.595Z,2.00
2023-04-11T03:20:13.740Z,1.83
2023-04-11T03:23:03.843Z,2.17
2023-04-11T03:25:53.733Z,2.28
2023-04-11T03:28:42.398Z,1.73
2023-04-11T03:31:31.095Z,2.13
2023-04-11T03:34:19.707Z,1.77
2023-04-11T03:37:08.439Z,2.20
2023-04-11T03:39:58.534Z,1.92
2023-04-11T03:42:47.678Z,2.45
2023-04-11T03:45:36.456Z,2.83
2023-04-11T03:48:26.426Z,2.33
2023-04-11T03:51:15.504Z,2.35
2023-04-11T03:54:04.594Z,2.72
2023-04-11T03:56:55.672Z,2.25
2023-04-11T03:59:44.933Z,7.88
2023-04-11T04:02:34.030Z,2.65
2023-04-11T04:05:23.276Z,5.03
2023-04-11T04:08:12.508Z,2.45
2023-04-11T04:11:01.574Z,5.15
2023-04-11T04:13:51.962Z,2.08
2023-04-11T04:16:41.088Z,2.30
2023-04-11T04:19:30.087Z,2.53
2023-04-11T04:22:18.958Z,1.73
2023-04-11T04:25:09.573Z,3.17
2023-04-11T04:28:00.849Z,2.72
2023-04-11T04:30:54.275Z,3.75
2023-04-11T04:33:43.938Z,2.33
2023-04-11T04:36:33.008Z,3.10
2023-04-11T04:39:22.053Z,2.42
2023-04-11T04:42:11.035Z,2.42
2023-04-11T04:45:00.268Z,3.40
2023-04-11T04:47:50.924Z,2.38
2023-04-11T04:50:40.555Z,1.88
2023-04-11T04:53:29.435Z,2.50
2023-04-11T04:56:18.638Z,2.17
2023-04-11T04:59:08.094Z,2.78
2023-04-11T05:01:56.935Z,1.90
2023-04-11T05:04:50.436Z,3.08
2023-04-11T05:07:40.101Z,5.07
2023-04-11T05:10:28.880Z,3.75
2023-04-11T05:13:18.429Z,3.85
2023-04-11T05:16:08.400Z,3.05
2023-04-11T05:18:57.204Z,3.05
2023-04-11T05:21:47.752Z,5.28
2023-04-11T05:24:37.090Z,2.88
2023-04-11T05:27:27.457Z,3.33
2023-04-11T05:30:16.740Z,4.40
2023-04-11T05:33:05.567Z,3.83
2023-04-11T05:35:54.400Z,2.70
2023-04-11T05:38:44.890Z,5.07
2023-04-11T05:41:33.615Z,5.07
2023-04-11T05:44:22.212Z,2.88
2023-04-11T05:47:11.614Z,3.17
2023-04-11T05:50:00.249Z,3.00
2023-04-11T05:52:48.892Z,3.83
2023-04-11T05:55:39.528Z,3.50
2023-04-11T05:58:29.694Z,4.80
2023-04-11T06:01:19.427Z,2.10
2023-04-11T06:04:08.306Z,2.70
2023-04-11T06:06:57.793Z,2.33
2023-04-11T06:09:46.611Z,2.47
2023-04-11T06:12:36.624Z,2.38
2023-04-11T06:15:26.584Z,2.33
2023-04-11T06:18:15.847Z,2.65
2023-04-11T06:21:04.918Z,6.57
2023-04-11T06:23:54.371Z,2.60
2023-04-11T06:26:43.726Z,2.03
2023-04-11T06:29:37.504Z,4.00
2023-04-11T06:32:26.452Z,3.53
2023-04-11T06:35:15.130Z,2.72
2023-04-11T06:38:03.789Z,2.50
2023-04-11T06:40:54.526Z,8.13
2023-04-11T06:43:46.132Z,5.53
2023-04-11T06:46:36.170Z,17.17
2023-04-11T06:49:24.768Z,5.75
2023-04-11T06:52:13.339Z,5.43
2023-04-11T06:55:01.916Z,8.10
2023-04-11T06:57:50.650Z,4.70
2023-04-11T07:00:39.432Z,5.68
2023-04-11T07:03:31.096Z,6.63
2023-04-11T07:06:20.392Z,10.25
2023-04-11T07:09:12.658Z,11.55
2023-04-11T07:12:01.745Z,17.27
2023-04-11T07:14:50.560Z,17.00
2023-04-11T07:17:39.752Z,14.02
2023-04-11T07:20:31.152Z,13.15
2023-04-11T07:23:22.399Z,15.40
2023-04-11T07:26:12.487Z,17.38
2023-04-11T07:29:01.548Z,13.48
2023-04-11T07:31:51.594Z,13.60
2023-04-11T07:34:40.970Z,17.13
2023-04-11T07:37:32.593Z,11.52
2023-04-11T07:40:22.521Z,11.88
2023-04-11T07:43:11.177Z,18.98
2023-04-11T07:46:00.869Z,12.27
2023-04-11T07:48:50.138Z,7.07
2023-04-11T07:51:38.759Z,11.80
2023-04-11T07:54:32.092Z,8.07
2023-04-11T07:57:20.795Z,7.97
2023-04-11T08:00:13.269Z,10.38
2023-04-11T08:03:04.716Z,8.77
2023-04-11T08:05:53.657Z,9.43
2023-04-11T08:08:43.221Z,7.18
2023-04-11T08:11:34.595Z,7.78
2023-04-11T08:14:23.476Z,6.88
2023-04-11T08:17:27.154Z,7.18
2023-04-11T08:20:17.918Z,8.07
2023-04-11T08:23:08.672Z,7.15
2023-04-11T08:25:57.458Z,7.93
2023-04-11T08:28:47.686Z,5.60
2023-04-11T08:31:36.255Z,5.38
2023-04-11T08:34:24.866Z,6.97
2023-04-11T08:37:13.879Z,5.93
2023-04-11T08:40:06.496Z,4.03
2023-04-11T08:43:00.533Z,4.47
2023-04-11T08:45:50.739Z,4.90
2023-04-11T08:48:40.293Z,2.42
2023-04-11T08:51:28.941Z,3.75
2023-04-11T08:54:17.576Z,4.72
2023-04-11T08:57:06.479Z,3.65
2023-04-11T08:59:56.739Z,2.33
2023-04-11T09:03:00.641Z,2.55
2023-04-11T09:05:49.611Z,3.67
2023-04-11T09:08:40.463Z,5.18
2023-04-11T09:11:29.167Z,4.20
2023-04-11T09:14:17.784Z,2.88
2023-04-11T09:17:13.163Z,2.13
2023-04-11T09:20:17.809Z,3.15
2023-04-11T09:23:06.630Z,3.33
2023-04-11T09:25:56.254Z,4.28
2023-04-11T09:28:52.498Z,2.33
2023-04-11T09:31:42.498Z,1.52
2023-04-11T09:34:31.293Z,4.13
2023-04-11T09:37:21.629Z,1.75
2023-04-11T09:40:11.482Z,3.28
2023-04-11T09:43:01.339Z,2.72
2023-04-11T09:45:54.574Z,2.47
2023-04-11T09:49:01.366Z,1.40
2023-04-11T09:51:50.795Z,1.38
2023-04-11T09:54:41.068Z,2.28
2023-04-11T09:57:30.966Z,1.38
2023-04-11T10:00:21.818Z,3.60
2023-04-11T10:03:10.599Z,5.28
2023-04-11T10:05:59.280Z,1.63
2023-04-11T10:08:47.981Z,2.38
2023-04-11T10:11:38.260Z,2.20
2023-04-11T10:14:46.741Z,1.55
2023-04-11T10:17:36.418Z,1.10
2023-04-11T10:20:45.190Z,1.20
2023-04-11T10:24:08.510Z,1.42
2023-04-11T10:26:59.553Z,2.42
2023-04-11T10:29:52.964Z,1.27
2023-04-11T10:32:42.762Z,2.28
2023-04-11T10:35:31.590Z,0.60
2023-04-11T10:38:49.227Z,0.63
2023-04-11T10:41:38.284Z,1.52
2023-04-11T10:44:28.363Z,2.00
2023-04-11T10:47:19.127Z,0.90
2023-04-11T10:50:38.067Z,0.93
2023-04-11T10:53:41.153Z,1.00
2023-04-11T10:56:57.724Z,2.83
2023-04-11T11:00:00.615Z,3.17
2023-04-11T11:02:49.609Z,1.80
2023-04-11T11:05:39.920Z,1.45
2023-04-11T11:08:30.524Z,1.05
2023-04-11T11:11:20.898Z,0.60
2023-04-11T11:14:09.393Z,1.20
2023-04-11T11:16:59.722Z,1.98
2023-04-11T11:19:49.407Z,0.95
2023-04-11T11:22:38.019Z,0.80
2023-04-11T11:25:27.181Z,1.77
2023-04-11T11:28:15.731Z,0.65
2023-04-11T11:31:04.373Z,0.50
2023-04-11T11:33:58.206Z,0.82
2023-04-11T11:36:49.954Z,0.75
2023-04-11T11:39:38.700Z,3.95
2023-04-11T11:42:28.033Z,1.65
2023-04-11T11:45:16.991Z,1.23
2023-04-11T11:48:06.033Z,0.47
2023-04-11T11:50:59.678Z,0.52
2023-04-11T11:54:04.807Z,1.33
2023-04-11T11:56:53.666Z,0.35
2023-04-11T11:59:42.680Z,0.50
2023-04-11T12:02:31.526Z,3.60
2023-04-11T12:05:20.317Z,7.30
2023-04-11T12:08:10.474Z,23.35
2023-04-11T12:10:59.055Z,44.40
2023-04-11T12:13:47.725Z,50.95
2023-04-11T12:16:36.698Z,34.33
2023-04-11T12:19:25.430Z,48.40
2023-04-11T12:22:14.017Z,46.95
2023-04-11T12:25:08.266Z,41.53
2023-04-11T12:27:56.884Z,46.90
2023-04-11T12:30:45.458Z,48.80
2023-04-11T12:33:34.082Z,37.63
2023-04-11T12:36:22.958Z,34.35
2023-04-11T12:39:11.567Z,36.97
2023-04-11T12:42:01.548Z,40.22
2023-04-11T12:44:50.851Z,29.50
2023-04-11T12:47:39.734Z,33.65
2023-04-11T12:50:38.259Z,27.67
2023-04-11T12:53:28.442Z,27.55
2023-04-11T12:56:17.147Z,25.65
2023-04-11T12:59:07.504Z,27.70
2023-04-11T13:01:56.261Z,21.73
2023-04-11T13:04:45.151Z,20.98
2023-04-11T13:07:37.893Z,20.60
2023-04-11T13:10:26.545Z,25.52
2023-04-11T13:13:18.486Z,15.35
2023-04-11T13:16:10.332Z,20.13
2023-04-11T13:18:59.451Z,22.25
2023-04-11T13:21:48.095Z,14.00
2023-04-11T13:24:36.682Z,15.35
2023-04-11T13:27:25.632Z,13.30
2023-04-11T13:30:15.155Z,15.25
2023-04-11T13:33:06.719Z,15.52
2023-04-11T13:35:55.399Z,11.98
2023-04-11T13:38:43.973Z,12.75
2023-04-11T13:41:32.942Z,13.18
2023-04-11T13:44:21.719Z,13.10
2023-04-11T13:47:10.468Z,9.38
2023-04-11T13:50:00.960Z,12.13
2023-04-11T13:52:49.920Z,10.15
2023-04-11T13:55:38.594Z,9.70
2023-04-11T13:58:27.344Z,10.50
2023-04-11T14:01:16.536Z,9.35
2023-04-11T14:04:05.747Z,7.10
2023-04-11T14:06:55.811Z,5.15
2023-04-11T14:09:44.419Z,6.18
2023-04-11T14:12:33.317Z,7.25
2023-04-11T14:15:22.098Z,9.30
2023-04-11T14:18:10.958Z,10.32
2023-04-11T14:21:01.690Z,5.72
2023-04-11T14:23:51.689Z,4.47
2023-04-11T14:26:40.728Z,6.70
2023-04-11T14:29:31.052Z,8.20
2023-04-11T14:32:19.598Z,4.43
2023-04-11T14:35:09.708Z,7.60
2023-04-11T14:37:59.116Z,8.15
2023-04-11T14:40:49.035Z,4.70
2023-04-11T14:43:37.744Z,8.32
2023-04-11T14:46:26.472Z,6.95
2023-04-11T14:49:15.162Z,5.38
2023-04-11T14:52:03.773Z,5.78
2023-04-11T14:54:54.982Z,3.60
2023-04-11T14:57:47.525Z,4.97
2023-04-11T15:00:36.148Z,3.50
2023-04-11T15:03:25.267Z,4.93
2023-04-11T15:06:14.308Z,6.45
2023-04-11T15:09:04.626Z,4.55
2023-04-11T15:11:53.234Z,2.33
2023-04-11T15:14:43.464Z,6.07
2023-04-11T15:17:32.101Z,2.25
2023-04-11T15:20:20.950Z,2.35
2023-04-11T15:23:09.654Z,2.72
2023-04-11T15:26:01.192Z,2.80
2023-04-11T15:28:49.786Z,2.97
2023-04-11T15:31:39.900Z,2.80
2023-04-11T15:34:28.513Z,2.28
2023-04-11T15:37:17.163Z,3.30
2023-04-11T15:40:09.139Z,1.25
2023-04-11T15:42:57.811Z,1.33
2023-04-11T15:45:46.443Z,4.07
2023-04-11T15:48:36.471Z,1.17
2023-04-11T15:51:27.234Z,1.38
2023-04-11T15:54:15.822Z,3.10
2023-04-11T15:57:04.679Z,1.85
2023-04-11T15:59:53.349Z,2.63
2023-04-11T16:02:45.860Z,1.33
2023-04-11T16:05:38.225Z,2.20
2023-04-11T16:08:27.506Z,1.65
2023-04-11T16:11:16.187Z,2.75
2023-04-11T16:14:04.766Z,1.42
2023-04-11T16:16:54.102Z,3.88
2023-04-11T16:19:42.867Z,1.45
2023-04-11T16:22:33.329Z,3.47
2023-04-11T16:25:21.972Z,1.08
2023-04-11T16:28:13.822Z,1.17
2023-04-11T16:31:02.365Z,1.05
2023-04-11T16:33:51.017Z,4.32
2023-04-11T16:36:39.771Z,2.63
2023-04-11T16:39:29.946Z,1.95
2023-04-11T16:42:18.793Z,4.10
2023-04-11T16:45:09.177Z,0.88
2023-04-11T16:47:57.824Z,1.00
2023-04-11T16:50:46.571Z,3.30
2023-04-11T16:53:35.214Z,4.07
2023-04-11T16:56:26.738Z,11.02
2023-04-11T16:59:17.271Z,14.45
2023-04-11T17:02:05.944Z,59.47
2023-04-11T17:04:54.681Z,71.00
2023-04-11T17:07:43.786Z,101.90
2023-04-11T17:10:32.462Z,125.28
2023-04-11T17:13:22.451Z,118.97
2023-04-11T17:16:11.099Z,125.97
2023-04-11T17:18:59.764Z,126.70
2023-04-11T17:21:48.545Z,128.45
2023-04-11T17:24:37.168Z,141.65
2023-04-11T17:27:25.866Z,119.72
2023-04-11T17:30:16.860Z,115.22
2023-04-11T17:33:05.655Z,121.03
2023-04-11T17:35:54.587Z,117.57
2023-04-11T17:38:43.499Z,104.20
2023-04-11T17:41:32.373Z,91.22
2023-04-11T17:44:21.095Z,86.78
2023-04-11T17:47:11.473Z,83.40
2023-04-11T17:50:00.333Z,80.68
2023-04-11T17:52:49.000Z,73.35
2023-04-11T17:55:37.886Z,60.30
2023-04-11T17:58:26.681Z,72.15
2023-04-11T18:01:15.776Z,68.50
2023-04-11T18:04:09.389Z,60.28
2023-04-11T18:06:58.374Z,52.28
2023-04-11T18:09:48.068Z,51.55
2023-04-11T18:12:36.684Z,56.42
2023-04-11T18:15:26.568Z,47.85
2023-04-11T18:18:15.127Z,48.65
2023-04-11T18:21:07.765Z,37.35
2023-04-11T18:23:56.958Z,39.00
2023-04-11T18:26:47.092Z,38.47
2023-04-11T18:29:35.699Z,29.42
2023-04-11T18:32:26.727Z,36.78
2023-04-11T18:35:17.418Z,37.28
2023-04-11T18:38:07.500Z,28.05
2023-04-11T18:40:56.989Z,30.38
2023-04-11T18:43:46.069Z,32.45
2023-04-11T18:46:35.574Z,27.10
2023-04-11T18:49:24.986Z,32.38
2023-04-11T18:52:14.099Z,20.92
2023-04-11T18:55:04.476Z,22.80
2023-04-11T18:57:57.337Z,24.83
2023-04-11T19:00:49.324Z,19.60
2023-04-11T19:03:38.199Z,20.08
2023-04-11T19:06:27.443Z,20.58
2023-04-11T19:09:16.090Z,18.88
2023-04-11T19:12:06.537Z,24.13
2023-04-11T19:14:55.148Z,30.92
2023-04-11T19:17:43.899Z,15.70
2023-04-11T19:20:35.381Z,19.40
2023-04-11T19:23:25.254Z,18.65
2023-04-11T19:26:14.815Z,14.98
2023-04-11T19:29:04.916Z,18.52
2023-04-11T19:31:53.517Z,16.58
2023-04-11T19:34:42.208Z,14.38
2023-04-11T19:37:31.041Z,18.67
2023-04-11T19:40:23.297Z,12.60
2023-04-11T19:43:12.096Z,10.90
2023-04-11T19:46:02.117Z,11.63
2023-04-11T19:48:51.463Z,14.40
2023-04-11T19:51:40.710Z,11.32
2023-04-11T19:54:30.797Z,12.75
2023-04-11T19:57:19.489Z,14.55
2023-04-11T20:00:13.955Z,9.98
2023-04-11T20:03:05.945Z,9.13
2023-04-11T20:05:54.717Z,12.30
2023-04-11T20:08:43.665Z,9.93
2023-04-11T20:11:33.498Z,10.18
2023-04-11T20:14:22.230Z,10.65
2023-04-11T20:17:10.817Z,7.65
2023-04-11T20:20:05.811Z,7.43
2023-04-11T20:22:54.874Z,11.75
2023-04-11T20:25:44.006Z,7.20
2023-04-11T20:28:32.971Z,8.57
2023-04-11T20:31:21.698Z,7.15
2023-04-11T20:34:10.422Z,7.78
2023-04-11T20:37:01.857Z,9.07
2023-04-11T20:39:51.658Z,6.97
2023-04-11T20:42:42.371Z,6.13
2023-04-11T20:45:33.099Z,4.80
2023-04-11T20:48:21.862Z,6.07
2023-04-11T20:51:11.322Z,4.90
2023-04-11T20:54:01.379Z,4.68
2023-04-11T20:56:50.411Z,6.20
2023-04-11T20:59:40.484Z,5.22
2023-04-11T21:02:29.591Z,3.60
2023-04-11T21:05:21.355Z,5.28
2023-04-11T21:08:12.040Z,6.70
2023-04-11T21:11:03.765Z,5.22
2023-04-11T21:13:53.642Z,2.35
2023-04-11T21:16:42.356Z,4.25
2023-04-11T21:19:33.632Z,4.55
2023-04-11T21:22:22.515Z,2.28
2023-04-11T21:25:11.783Z,1.55
2023-04-11T21:28:01.980Z,3.30
2023-04-11T21:30:50.707Z,3.28
2023-04-11T21:33:39.533Z,5.10
2023-04-11T21:36:28.170Z,4.65
2023-04-11T21:39:16.930Z,6.70
2023-04-11T21:42:06.000Z,2.75
2023-04-11T21:44:55.984Z,5.28
2023-04-11T21:47:44.900Z,3.38
2023-04-11T21:50:33.528Z,1.95
2023-04-11T21:53:22.126Z,3.90
2023-04-11T21:56:11.418Z,1.58
2023-04-11T21:59:00.126Z,1.67
2023-04-11T22:01:50.200Z,3.00
2023-04-11T22:04:47.848Z,2.33
2023-04-11T22:07:47.429Z,2.05
2023-04-11T22:10:47.359Z,1.42
2023-04-11T22:13:38.186Z,2.42
2023-04-11T22:16:30.675Z,6.78
2023-04-11T22:19:21.041Z,1.52
2023-04-11T22:22:10.403Z,1.45
2023-04-11T22:24:59.162Z,2.05
2023-04-11T22:27:47.848Z,1.25
2023-04-11T22:30:38.466Z,1.45
2023-04-11T22:33:27.898Z,0.95
2023-04-11T22:36:18.585Z,0.82
2023-04-11T22:39:08.891Z,1.05
2023-04-11T22:41:57.835Z,1.00
2023-04-11T22:44:46.977Z,3.03
2023-04-11T22:47:38.237Z,2.60
2023-04-11T22:50:27.093Z,1.95
2023-04-11T22:53:18.690Z,1.10
2023-04-11T22:56:08.337Z,1.40
2023-04-11T22:58:57.041Z,1.00
2023-04-11T23:01:45.771Z,0.68
2023-04-11T23:04:34.591Z,1.45
2023-04-11T23:07:25.987Z,2.10
2023-04-11T23:10:16.134Z,3.65
2023-04-11T23:13:08.081Z,7.20
2023-04-11T23:15:56.867Z,9.68
2023-04-11T23:18:45.648Z,9.32
2023-04-11T23:21:34.361Z,8.43
2023-04-11T23:24:23.019Z,10.98
2023-04-11T23:27:13.342Z,10.75
2023-04-11T23:30:02.049Z,11.02
2023-04-11T23:32:51.196Z,11.23
2023-04-11T23:35:39.891Z,10.73
2023-04-11T23:38:28.910Z,11.68
2023-04-11T23:41:17.574Z,7.55
2023-04-11T23:44:07.957Z,8.07
2023-04-11T23:46:56.746Z,9.68
2023-04-11T23:49:45.724Z,8.60
2023-04-11T23:52:35.882Z,6.93
2023-04-11T23:55:24.662Z,8.55
2023-04-11T23:58:13.434Z,5.82
